sensor_id;sensor_type;location;lat;lon;timestamp;P1;P2;P0
76421;PMS5003;65254;52.354;13.614;2023-07-29T00:00:00;4;4;
76421;PMS5003;65254;52.354;13.614;2023-07-29T00:04:00;4;4;
76421;PMS5003;65254;52.354;13.614;2023-07-29T00:08:00;4;4;
76421;PMS5003;65254;52.354;13.614;2023-07-29T00:12:00;4;4;
76421;PMS5003;65254;52.354;13.614;2023-07-29T00:16:00;3;3;
76421;PMS5003;65254;52.354;13.614;2023-07-29T00:20:00;5;5;
76421;PMS5003;65254;52.354;13.614;2023-07-29T00:24:00;3;3;
76421;PMS5003;65254;52.354;13.614;2023-07-29T00:28:00;4;4;
76421;PMS5003;65254;52.354;13.614;2023-07-29T00:32:00;4;4;
76421;PMS5003;65254;52.354;13.614;2023-07-29T00:36:00;4;4;
76421;PMS5003;65254;52.354;13.614;2023-07-29T00:40:00;4;4;
76421;PMS5003;65254;52.354;13.614;2023-07-29T00:44:00;4;4;
76421;PMS5003;65254;52.354;13.614;2023-07-29T00:48:01;4;4;
76421;PMS5003;65254;52.354;13.614;2023-07-29T00:52:00;4;4;
76421;PMS5003;65254;52.354;13.614;2023-07-29T00:56:00;4;4;
76421;PMS5003;65254;52.354;13.614;2023-07-29T01:00:01;4;4;
76421;PMS5003;65254;52.354;13.614;2023-07-29T01:04:00;4;4;
76421;PMS5003;65254;52.354;13.614;2023-07-29T01:08:06;4;4;
76421;PMS5003;65254;52.354;13.614;2023-07-29T01:12:07;4;4;
76421;PMS5003;65254;52.354;13.614;2023-07-29T01:16:04;4;4;
76421;PMS5003;65254;52.354;13.614;2023-07-29T01:20:02;4;4;
76421;PMS5003;65254;52.354;13.614;2023-07-29T01:24:00;4;4;
76421;PMS5003;65254;52.354;13.614;2023-07-29T01:28:00;4;4;
76421;PMS5003;65254;52.354;13.614;2023-07-29T01:32:05;4;4;
76421;PMS5003;65254;52.354;13.614;2023-07-29T01:36:03;3;3;
76421;PMS5003;65254;52.354;13.614;2023-07-29T01:40:01;4;4;
76421;PMS5003;65254;52.354;13.614;2023-07-29T01:44:01;4;4;
76421;PMS5003;65254;52.354;13.614;2023-07-29T01:48:00;4;4;
76421;PMS5003;65254;52.354;13.614;2023-07-29T01:52:00;4;4;
76421;PMS5003;65254;52.354;13.614;2023-07-29T01:56:01;4;4;
76421;PMS5003;65254;52.354;13.614;2023-07-29T02:00:00;5;5;
76421;PMS5003;65254;52.354;13.614;2023-07-29T02:04:00;4;4;
76421;PMS5003;65254;52.354;13.614;2023-07-29T02:08:00;4;4;
76421;PMS5003;65254;52.354;13.614;2023-07-29T02:12:00;5;5;
76421;PMS5003;65254;52.354;13.614;2023-07-29T02:16:00;4;4;
76421;PMS5003;65254;52.354;13.614;2023-07-29T02:20:00;5;5;
76421;PMS5003;65254;52.354;13.614;2023-07-29T02:24:00;4;4;
76421;PMS5003;65254;52.354;13.614;2023-07-29T02:28:00;4;4;
76421;PMS5003;65254;52.354;13.614;2023-07-29T02:32:00;5;5;
76421;PMS5003;65254;52.354;13.614;2023-07-29T02:36:00;5;5;
76421;PMS5003;65254;52.354;13.614;2023-07-29T02:40:00;5;5;
76421;PMS5003;65254;52.354;13.614;2023-07-29T02:44:01;5;5;
76421;PMS5003;65254;52.354;13.614;2023-07-29T02:48:01;4;4;
76421;PMS5003;65254;52.354;13.614;2023-07-29T02:52:00;5;5;
76421;PMS5003;65254;52.354;13.614;2023-07-29T02:56:00;4;4;
76421;PMS5003;65254;52.354;13.614;2023-07-29T03:00:00;4;4;
76421;PMS5003;65254;52.354;13.614;2023-07-29T03:04:00;4;4;
76421;PMS5003;65254;52.354;13.614;2023-07-29T03:08:00;5;5;
76421;PMS5003;65254;52.354;13.614;2023-07-29T03:12:00;5;5;
76421;PMS5003;65254;52.354;13.614;2023-07-29T03:16:05;5;5;
76421;PMS5003;65254;52.354;13.614;2023-07-29T03:20:00;4;4;
76421;PMS5003;65254;52.354;13.614;2023-07-29T03:24:00;4;4;
76421;PMS5003;65254;52.354;13.614;2023-07-29T03:28:00;5;5;
76421;PMS5003;65254;52.354;13.614;2023-07-29T03:32:00;5;5;
76421;PMS5003;65254;52.354;13.614;2023-07-29T03:36:00;6;6;
76421;PMS5003;65254;52.354;13.614;2023-07-29T03:40:06;5;5;
76421;PMS5003;65254;52.354;13.614;2023-07-29T03:44:00;5;5;
76421;PMS5003;65254;52.354;13.614;2023-07-29T03:48:01;5;5;
76421;PMS5003;65254;52.354;13.614;2023-07-29T03:52:00;5;5;
76421;PMS5003;65254;52.354;13.614;2023-07-29T03:56:00;5;5;
76421;PMS5003;65254;52.354;13.614;2023-07-29T04:00:00;5;5;
76421;PMS5003;65254;52.354;13.614;2023-07-29T04:04:00;4;4;
76421;PMS5003;65254;52.354;13.614;2023-07-29T04:08:00;5;5;
76421;PMS5003;65254;52.354;13.614;2023-07-29T04:12:00;5;5;
76421;PMS5003;65254;52.354;13.614;2023-07-29T04:16:00;5;5;
76421;PMS5003;65254;52.354;13.614;2023-07-29T04:20:00;5;5;
76421;PMS5003;65254;52.354;13.614;2023-07-29T04:24:00;5;5;
76421;PMS5003;65254;52.354;13.614;2023-07-29T04:28:00;6;6;
76421;PMS5003;65254;52.354;13.614;2023-07-29T04:32:00;6;6;
76421;PMS5003;65254;52.354;13.614;2023-07-29T04:36:00;6;6;
76421;PMS5003;65254;52.354;13.614;2023-07-29T04:40:00;7;7;
76421;PMS5003;65254;52.354;13.614;2023-07-29T04:44:00;7;7;
76421;PMS5003;65254;52.354;13.614;2023-07-29T04:48:00;7;7;
76421;PMS5003;65254;52.354;13.614;2023-07-29T04:52:00;7;7;
76421;PMS5003;65254;52.354;13.614;2023-07-29T04:56:00;7;7;
76421;PMS5003;65254;52.354;13.614;2023-07-29T05:00:02;6;6;
76421;PMS5003;65254;52.354;13.614;2023-07-29T05:04:00;6;6;
76421;PMS5003;65254;52.354;13.614;2023-07-29T05:08:00;6;6;
76421;PMS5003;65254;52.354;13.614;2023-07-29T05:12:00;6;6;
76421;PMS5003;65254;52.354;13.614;2023-07-29T05:16:00;6;6;
76421;PMS5003;65254;52.354;13.614;2023-07-29T05:20:00;6;6;
76421;PMS5003;65254;52.354;13.614;2023-07-29T05:24:00;5;5;
76421;PMS5003;65254;52.354;13.614;2023-07-29T05:28:00;5;5;
76421;PMS5003;65254;52.354;13.614;2023-07-29T05:32:00;5;5;
76421;PMS5003;65254;52.354;13.614;2023-07-29T05:36:00;5;5;
76421;PMS5003;65254;52.354;13.614;2023-07-29T05:40:00;5;5;
76421;PMS5003;65254;52.354;13.614;2023-07-29T05:44:00;4;4;
76421;PMS5003;65254;52.354;13.614;2023-07-29T05:48:00;4;4;
76421;PMS5003;65254;52.354;13.614;2023-07-29T05:52:01;4;4;
76421;PMS5003;65254;52.354;13.614;2023-07-29T05:56:00;4;4;
76421;PMS5003;65254;52.354;13.614;2023-07-29T06:00:00;4;4;
76421;PMS5003;65254;52.354;13.614;2023-07-29T06:04:00;3;3;
76421;PMS5003;65254;52.354;13.614;2023-07-29T06:08:00;4;4;
76421;PMS5003;65254;52.354;13.614;2023-07-29T06:12:00;4;4;
76421;PMS5003;65254;52.354;13.614;2023-07-29T06:16:00;3;3;
76421;PMS5003;65254;52.354;13.614;2023-07-29T06:20:00;3;3;
76421;PMS5003;65254;52.354;13.614;2023-07-29T06:24:00;3;3;
76421;PMS5003;65254;52.354;13.614;2023-07-29T06:28:00;2;2;
76421;PMS5003;65254;52.354;13.614;2023-07-29T06:32:00;3;3;
76421;PMS5003;65254;52.354;13.614;2023-07-29T06:36:00;3;3;
76421;PMS5003;65254;52.354;13.614;2023-07-29T06:40:00;3;3;
76421;PMS5003;65254;52.354;13.614;2023-07-29T06:44:00;2;2;
76421;PMS5003;65254;52.354;13.614;2023-07-29T06:48:00;2;2;
76421;PMS5003;65254;52.354;13.614;2023-07-29T06:52:00;3;3;
76421;PMS5003;65254;52.354;13.614;2023-07-29T06:56:00;3;3;
76421;PMS5003;65254;52.354;13.614;2023-07-29T07:00:00;3;3;
76421;PMS5003;65254;52.354;13.614;2023-07-29T07:04:00;2;2;
76421;PMS5003;65254;52.354;13.614;2023-07-29T07:08:00;3;3;
76421;PMS5003;65254;52.354;13.614;2023-07-29T07:12:00;3;3;
76421;PMS5003;65254;52.354;13.614;2023-07-29T07:16:00;2;2;
76421;PMS5003;65254;52.354;13.614;2023-07-29T07:20:00;2;2;
76421;PMS5003;65254;52.354;13.614;2023-07-29T07:24:00;2;2;
76421;PMS5003;65254;52.354;13.614;2023-07-29T07:28:00;2;2;
76421;PMS5003;65254;52.354;13.614;2023-07-29T07:32:00;2;2;
76421;PMS5003;65254;52.354;13.614;2023-07-29T07:36:00;2;2;
76421;PMS5003;65254;52.354;13.614;2023-07-29T07:40:00;2;2;
76421;PMS5003;65254;52.354;13.614;2023-07-29T07:44:00;2;2;
76421;PMS5003;65254;52.354;13.614;2023-07-29T07:48:00;2;2;
76421;PMS5003;65254;52.354;13.614;2023-07-29T07:52:00;3;3;
76421;PMS5003;65254;52.354;13.614;2023-07-29T07:56:00;2;2;
76421;PMS5003;65254;52.354;13.614;2023-07-29T08:00:00;2;2;
76421;PMS5003;65254;52.354;13.614;2023-07-29T08:04:00;2;2;
76421;PMS5003;65254;52.354;13.614;2023-07-29T08:08:00;2;2;
76421;PMS5003;65254;52.354;13.614;2023-07-29T08:12:00;2;2;
76421;PMS5003;65254;52.354;13.614;2023-07-29T08:16:00;2;2;
76421;PMS5003;65254;52.354;13.614;2023-07-29T08:20:00;2;2;
76421;PMS5003;65254;52.354;13.614;2023-07-29T08:24:00;2;2;
76421;PMS5003;65254;52.354;13.614;2023-07-29T08:28:00;2;2;
76421;PMS5003;65254;52.354;13.614;2023-07-29T08:32:00;2;2;
76421;PMS5003;65254;52.354;13.614;2023-07-29T08:36:00;3;3;
76421;PMS5003;65254;52.354;13.614;2023-07-29T08:40:00;3;3;
76421;PMS5003;65254;52.354;13.614;2023-07-29T08:44:06;3;3;
76421;PMS5003;65254;52.354;13.614;2023-07-29T08:48:02;2;2;
76421;PMS5003;65254;52.354;13.614;2023-07-29T08:52:01;2;2;
76421;PMS5003;65254;52.354;13.614;2023-07-29T08:56:01;2;2;
76421;PMS5003;65254;52.354;13.614;2023-07-29T09:00:01;2;2;
76421;PMS5003;65254;52.354;13.614;2023-07-29T09:04:00;2;2;
76421;PMS5003;65254;52.354;13.614;2023-07-29T09:08:02;3;3;
76421;PMS5003;65254;52.354;13.614;2023-07-29T09:12:00;2;2;
76421;PMS5003;65254;52.354;13.614;2023-07-29T09:16:00;2;2;
76421;PMS5003;65254;52.354;13.614;2023-07-29T09:20:00;2;2;
76421;PMS5003;65254;52.354;13.614;2023-07-29T09:24:03;2;2;
76421;PMS5003;65254;52.354;13.614;2023-07-29T09:28:01;2;2;
76421;PMS5003;65254;52.354;13.614;2023-07-29T09:32:19;2;2;
76421;PMS5003;65254;52.354;13.614;2023-07-29T09:36:00;2;2;
76421;PMS5003;65254;52.354;13.614;2023-07-29T09:40:00;2;2;
76421;PMS5003;65254;52.354;13.614;2023-07-29T09:44:02;2;2;
76421;PMS5003;65254;52.354;13.614;2023-07-29T09:48:02;1;1;
76421;PMS5003;65254;52.354;13.614;2023-07-29T09:52:00;2;2;
76421;PMS5003;65254;52.354;13.614;2023-07-29T09:56:00;2;2;
76421;PMS5003;65254;52.354;13.614;2023-07-29T10:00:00;2;2;
76421;PMS5003;65254;52.354;13.614;2023-07-29T10:04:01;2;2;
76421;PMS5003;65254;52.354;13.614;2023-07-29T10:08:01;2;2;
76421;PMS5003;65254;52.354;13.614;2023-07-29T10:12:00;2;2;
76421;PMS5003;65254;52.354;13.614;2023-07-29T10:16:01;1;1;
76421;PMS5003;65254;52.354;13.614;2023-07-29T10:20:00;1;1;
76421;PMS5003;65254;52.354;13.614;2023-07-29T10:24:02;1;1;
76421;PMS5003;65254;52.354;13.614;2023-07-29T10:28:04;1;1;
76421;PMS5003;65254;52.354;13.614;2023-07-29T10:32:01;1;1;
76421;PMS5003;65254;52.354;13.614;2023-07-29T10:36:01;1;1;
76421;PMS5003;65254;52.354;13.614;2023-07-29T10:40:00;1;1;
76421;PMS5003;65254;52.354;13.614;2023-07-29T10:44:00;1;1;
76421;PMS5003;65254;52.354;13.614;2023-07-29T10:48:05;1;1;
76421;PMS5003;65254;52.354;13.614;2023-07-29T10:52:00;1;1;
76421;PMS5003;65254;52.354;13.614;2023-07-29T10:56:03;1;1;
76421;PMS5003;65254;52.354;13.614;2023-07-29T11:00:01;1;1;
76421;PMS5003;65254;52.354;13.614;2023-07-29T11:04:01;1;1;
76421;PMS5003;65254;52.354;13.614;2023-07-29T11:08:18;1;1;
76421;PMS5003;65254;52.354;13.614;2023-07-29T11:12:05;2;2;
76421;PMS5003;65254;52.354;13.614;2023-07-29T11:16:01;1;1;
76421;PMS5003;65254;52.354;13.614;2023-07-29T11:20:01;1;1;
76421;PMS5003;65254;52.354;13.614;2023-07-29T11:24:01;1;1;
76421;PMS5003;65254;52.354;13.614;2023-07-29T11:28:03;1;1;
76421;PMS5003;65254;52.354;13.614;2023-07-29T11:32:00;2;2;
76421;PMS5003;65254;52.354;13.614;2023-07-29T11:36:00;2;2;
76421;PMS5003;65254;52.354;13.614;2023-07-29T11:40:00;3;3;
76421;PMS5003;65254;52.354;13.614;2023-07-29T11:44:00;1;1;
76421;PMS5003;65254;52.354;13.614;2023-07-29T11:48:01;1;1;
76421;PMS5003;65254;52.354;13.614;2023-07-29T11:52:02;1;1;
76421;PMS5003;65254;52.354;13.614;2023-07-29T11:56:01;1;1;
76421;PMS5003;65254;52.354;13.614;2023-07-29T12:00:02;1;1;
76421;PMS5003;65254;52.354;13.614;2023-07-29T12:04:00;1;1;
76421;PMS5003;65254;52.354;13.614;2023-07-29T12:08:01;1;1;
76421;PMS5003;65254;52.354;13.614;2023-07-29T12:12:01;2;2;
76421;PMS5003;65254;52.354;13.614;2023-07-29T12:16:01;2;2;
76421;PMS5003;65254;52.354;13.614;2023-07-29T12:20:00;2;2;
76421;PMS5003;65254;52.354;13.614;2023-07-29T12:24:02;2;2;
76421;PMS5003;65254;52.354;13.614;2023-07-29T12:28:03;2;2;
76421;PMS5003;65254;52.354;13.614;2023-07-29T12:32:03;2;2;
76421;PMS5003;65254;52.354;13.614;2023-07-29T12:36:00;1;1;
76421;PMS5003;65254;52.354;13.614;2023-07-29T12:40:02;0;0;
76421;PMS5003;65254;52.354;13.614;2023-07-29T12:44:00;0;0;
76421;PMS5003;65254;52.354;13.614;2023-07-29T12:48:00;0;0;
76421;PMS5003;65254;52.354;13.614;2023-07-29T12:52:00;0;0;
76421;PMS5003;65254;52.354;13.614;2023-07-29T12:56:00;0;0;
76421;PMS5003;65254;52.354;13.614;2023-07-29T13:00:00;0;0;
76421;PMS5003;65254;52.354;13.614;2023-07-29T13:04:00;0;0;
76421;PMS5003;65254;52.354;13.614;2023-07-29T13:08:00;0;0;
76421;PMS5003;65254;52.354;13.614;2023-07-29T13:12:01;0;0;
76421;PMS5003;65254;52.354;13.614;2023-07-29T13:16:03;0;0;
76421;PMS5003;65254;52.354;13.614;2023-07-29T13:20:00;0;0;
76421;PMS5003;65254;52.354;13.614;2023-07-29T13:28:00;0;0;
76421;PMS5003;65254;52.354;13.614;2023-07-29T13:32:00;0;0;
76421;PMS5003;65254;52.354;13.614;2023-07-29T13:36:00;0;0;
76421;PMS5003;65254;52.354;13.614;2023-07-29T13:40:00;0;0;
76421;PMS5003;65254;52.354;13.614;2023-07-29T13:44:00;0;0;
76421;PMS5003;65254;52.354;13.614;2023-07-29T13:48:00;0;0;
76421;PMS5003;65254;52.354;13.614;2023-07-29T13:52:00;0;0;
76421;PMS5003;65254;52.354;13.614;2023-07-29T13:56:00;0;0;
76421;PMS5003;65254;52.354;13.614;2023-07-29T14:00:00;0;0;
76421;PMS5003;65254;52.354;13.614;2023-07-29T14:04:00;0;0;
76421;PMS5003;65254;52.354;13.614;2023-07-29T14:08:00;0;0;
76421;PMS5003;65254;52.354;13.614;2023-07-29T14:12:00;0;0;
76421;PMS5003;65254;52.354;13.614;2023-07-29T14:16:01;0;0;
76421;PMS5003;65254;52.354;13.614;2023-07-29T14:20:00;0;0;
76421;PMS5003;65254;52.354;13.614;2023-07-29T14:24:00;1;1;
76421;PMS5003;65254;52.354;13.614;2023-07-29T14:28:00;1;1;
76421;PMS5003;65254;52.354;13.614;2023-07-29T14:32:00;1;1;
76421;PMS5003;65254;52.354;13.614;2023-07-29T14:36:00;0;0;
76421;PMS5003;65254;52.354;13.614;2023-07-29T14:40:00;1;1;
76421;PMS5003;65254;52.354;13.614;2023-07-29T14:44:00;0;0;
76421;PMS5003;65254;52.354;13.614;2023-07-29T14:48:00;0;0;
76421;PMS5003;65254;52.354;13.614;2023-07-29T14:52:00;1;1;
76421;PMS5003;65254;52.354;13.614;2023-07-29T14:56:00;1;1;
76421;PMS5003;65254;52.354;13.614;2023-07-29T15:00:00;1;1;
76421;PMS5003;65254;52.354;13.614;2023-07-29T15:04:00;1;1;
76421;PMS5003;65254;52.354;13.614;2023-07-29T15:08:00;1;1;
76421;PMS5003;65254;52.354;13.614;2023-07-29T15:12:00;1;1;
76421;PMS5003;65254;52.354;13.614;2023-07-29T15:16:00;1;1;
76421;PMS5003;65254;52.354;13.614;2023-07-29T15:20:01;1;1;
76421;PMS5003;65254;52.354;13.614;2023-07-29T15:24:00;1;1;
76421;PMS5003;65254;52.354;13.614;2023-07-29T15:28:00;1;1;
76421;PMS5003;65254;52.354;13.614;2023-07-29T15:32:00;0;0;
76421;PMS5003;65254;52.354;13.614;2023-07-29T15:36:00;1;1;
76421;PMS5003;65254;52.354;13.614;2023-07-29T15:40:00;1;1;
76421;PMS5003;65254;52.354;13.614;2023-07-29T15:44:00;1;1;
76421;PMS5003;65254;52.354;13.614;2023-07-29T15:48:00;1;1;
76421;PMS5003;65254;52.354;13.614;2023-07-29T15:52:02;1;1;
76421;PMS5003;65254;52.354;13.614;2023-07-29T15:56:00;1;1;
76421;PMS5003;65254;52.354;13.614;2023-07-29T16:00:00;1;1;
76421;PMS5003;65254;52.354;13.614;2023-07-29T16:04:00;5;5;
76421;PMS5003;65254;52.354;13.614;2023-07-29T16:08:00;1;1;
76421;PMS5003;65254;52.354;13.614;2023-07-29T16:12:01;1;1;
76421;PMS5003;65254;52.354;13.614;2023-07-29T16:16:00;1;1;
76421;PMS5003;65254;52.354;13.614;2023-07-29T16:20:02;1;1;
76421;PMS5003;65254;52.354;13.614;2023-07-29T16:24:00;0;0;
76421;PMS5003;65254;52.354;13.614;2023-07-29T16:28:00;1;1;
76421;PMS5003;65254;52.354;13.614;2023-07-29T16:32:00;1;1;
76421;PMS5003;65254;52.354;13.614;2023-07-29T16:36:00;1;1;
76421;PMS5003;65254;52.354;13.614;2023-07-29T16:40:00;1;1;
76421;PMS5003;65254;52.354;13.614;2023-07-29T16:44:00;1;1;
76421;PMS5003;65254;52.354;13.614;2023-07-29T16:48:00;1;1;
76421;PMS5003;65254;52.354;13.614;2023-07-29T16:52:00;2;2;
76421;PMS5003;65254;52.354;13.614;2023-07-29T16:56:00;2;2;
76421;PMS5003;65254;52.354;13.614;2023-07-29T17:00:01;2;2;
76421;PMS5003;65254;52.354;13.614;2023-07-29T17:04:00;2;2;
76421;PMS5003;65254;52.354;13.614;2023-07-29T17:08:00;1;1;
76421;PMS5003;65254;52.354;13.614;2023-07-29T17:12:00;1;1;
76421;PMS5003;65254;52.354;13.614;2023-07-29T17:16:00;1;1;
76421;PMS5003;65254;52.354;13.614;2023-07-29T17:20:00;1;1;
76421;PMS5003;65254;52.354;13.614;2023-07-29T17:24:00;1;1;
76421;PMS5003;65254;52.354;13.614;2023-07-29T17:28:00;1;1;
76421;PMS5003;65254;52.354;13.614;2023-07-29T17:32:00;1;1;
76421;PMS5003;65254;52.354;13.614;2023-07-29T17:36:00;1;1;
76421;PMS5003;65254;52.354;13.614;2023-07-29T17:40:00;1;1;
76421;PMS5003;65254;52.354;13.614;2023-07-29T17:44:00;1;1;
76421;PMS5003;65254;52.354;13.614;2023-07-29T17:48:00;1;1;
76421;PMS5003;65254;52.354;13.614;2023-07-29T17:52:00;1;1;
76421;PMS5003;65254;52.354;13.614;2023-07-29T17:56:00;1;1;
76421;PMS5003;65254;52.354;13.614;2023-07-29T18:00:00;1;1;
76421;PMS5003;65254;52.354;13.614;2023-07-29T18:04:00;1;1;
76421;PMS5003;65254;52.354;13.614;2023-07-29T18:08:00;1;1;
76421;PMS5003;65254;52.354;13.614;2023-07-29T18:12:00;2;2;
76421;PMS5003;65254;52.354;13.614;2023-07-29T18:16:00;1;1;
76421;PMS5003;65254;52.354;13.614;2023-07-29T18:20:00;1;1;
76421;PMS5003;65254;52.354;13.614;2023-07-29T18:24:00;1;1;
76421;PMS5003;65254;52.354;13.614;2023-07-29T18:28:00;1;1;
76421;PMS5003;65254;52.354;13.614;2023-07-29T18:32:00;1;1;
76421;PMS5003;65254;52.354;13.614;2023-07-29T18:36:00;1;1;
76421;PMS5003;65254;52.354;13.614;2023-07-29T18:40:00;1;1;
76421;PMS5003;65254;52.354;13.614;2023-07-29T18:44:00;1;1;
76421;PMS5003;65254;52.354;13.614;2023-07-29T18:48:00;1;1;
76421;PMS5003;65254;52.354;13.614;2023-07-29T18:52:00;1;1;
76421;PMS5003;65254;52.354;13.614;2023-07-29T18:56:00;1;1;
76421;PMS5003;65254;52.354;13.614;2023-07-29T19:00:00;1;1;
76421;PMS5003;65254;52.354;13.614;2023-07-29T19:04:01;1;1;
76421;PMS5003;65254;52.354;13.614;2023-07-29T19:08:00;1;1;
76421;PMS5003;65254;52.354;13.614;2023-07-29T19:12:00;1;1;
76421;PMS5003;65254;52.354;13.614;2023-07-29T19:16:00;1;1;
76421;PMS5003;65254;52.354;13.614;2023-07-29T19:20:00;1;1;
76421;PMS5003;65254;52.354;13.614;2023-07-29T19:24:00;1;1;
76421;PMS5003;65254;52.354;13.614;2023-07-29T19:28:00;1;1;
76421;PMS5003;65254;52.354;13.614;2023-07-29T19:32:00;1;1;
76421;PMS5003;65254;52.354;13.614;2023-07-29T19:36:00;1;1;
76421;PMS5003;65254;52.354;13.614;2023-07-29T19:40:00;1;1;
76421;PMS5003;65254;52.354;13.614;2023-07-29T19:44:10;1;1;
76421;PMS5003;65254;52.354;13.614;2023-07-29T19:48:00;1;1;
76421;PMS5003;65254;52.354;13.614;2023-07-29T19:52:00;1;1;
76421;PMS5003;65254;52.354;13.614;2023-07-29T19:56:00;2;2;
76421;PMS5003;65254;52.354;13.614;2023-07-29T20:00:00;2;2;
76421;PMS5003;65254;52.354;13.614;2023-07-29T20:04:00;2;2;
76421;PMS5003;65254;52.354;13.614;2023-07-29T20:08:00;2;2;
76421;PMS5003;65254;52.354;13.614;2023-07-29T20:12:00;3;3;
76421;PMS5003;65254;52.354;13.614;2023-07-29T20:16:00;3;3;
76421;PMS5003;65254;52.354;13.614;2023-07-29T20:20:00;3;3;
76421;PMS5003;65254;52.354;13.614;2023-07-29T20:24:00;3;3;
76421;PMS5003;65254;52.354;13.614;2023-07-29T20:28:00;3;3;
76421;PMS5003;65254;52.354;13.614;2023-07-29T20:32:00;4;4;
76421;PMS5003;65254;52.354;13.614;2023-07-29T20:36:00;3;3;
76421;PMS5003;65254;52.354;13.614;2023-07-29T20:40:00;3;3;
76421;PMS5003;65254;52.354;13.614;2023-07-29T20:44:00;4;4;
76421;PMS5003;65254;52.354;13.614;2023-07-29T20:48:00;5;5;
76421;PMS5003;65254;52.354;13.614;2023-07-29T20:52:00;5;5;
76421;PMS5003;65254;52.354;13.614;2023-07-29T20:56:00;4;4;
76421;PMS5003;65254;52.354;13.614;2023-07-29T21:00:00;5;5;
76421;PMS5003;65254;52.354;13.614;2023-07-29T21:04:00;5;5;
76421;PMS5003;65254;52.354;13.614;2023-07-29T21:08:00;5;5;
76421;PMS5003;65254;52.354;13.614;2023-07-29T21:12:00;5;5;
76421;PMS5003;65254;52.354;13.614;2023-07-29T21:16:00;4;4;
76421;PMS5003;65254;52.354;13.614;2023-07-29T21:20:00;4;4;
76421;PMS5003;65254;52.354;13.614;2023-07-29T21:24:00;4;4;
76421;PMS5003;65254;52.354;13.614;2023-07-29T21:28:00;4;4;
76421;PMS5003;65254;52.354;13.614;2023-07-29T21:32:00;3;3;
76421;PMS5003;65254;52.354;13.614;2023-07-29T21:36:00;3;3;
76421;PMS5003;65254;52.354;13.614;2023-07-29T21:40:00;3;3;
76421;PMS5003;65254;52.354;13.614;2023-07-29T21:44:00;4;4;
76421;PMS5003;65254;52.354;13.614;2023-07-29T21:48:00;4;4;
76421;PMS5003;65254;52.354;13.614;2023-07-29T21:52:00;3;3;
76421;PMS5003;65254;52.354;13.614;2023-07-29T21:56:00;3;3;
76421;PMS5003;65254;52.354;13.614;2023-07-29T22:00:00;4;4;
76421;PMS5003;65254;52.354;13.614;2023-07-29T22:04:00;4;4;
76421;PMS5003;65254;52.354;13.614;2023-07-29T22:08:04;4;4;
76421;PMS5003;65254;52.354;13.614;2023-07-29T22:12:00;4;4;
76421;PMS5003;65254;52.354;13.614;2023-07-29T22:16:00;4;4;
76421;PMS5003;65254;52.354;13.614;2023-07-29T22:20:00;4;4;
76421;PMS5003;65254;52.354;13.614;2023-07-29T22:24:01;4;4;
76421;PMS5003;65254;52.354;13.614;2023-07-29T22:28:00;4;4;
76421;PMS5003;65254;52.354;13.614;2023-07-29T22:32:00;4;4;
76421;PMS5003;65254;52.354;13.614;2023-07-29T22:36:01;4;4;
76421;PMS5003;65254;52.354;13.614;2023-07-29T22:40:00;4;4;
76421;PMS5003;65254;52.354;13.614;2023-07-29T22:44:00;4;4;
76421;PMS5003;65254;52.354;13.614;2023-07-29T22:48:00;4;4;
76421;PMS5003;65254;52.354;13.614;2023-07-29T22:52:00;4;4;
76421;PMS5003;65254;52.354;13.614;2023-07-29T22:56:00;4;4;
76421;PMS5003;65254;52.354;13.614;2023-07-29T23:00:00;4;4;
76421;PMS5003;65254;52.354;13.614;2023-07-29T23:04:00;4;4;
76421;PMS5003;65254;52.354;13.614;2023-07-29T23:08:00;4;4;
76421;PMS5003;65254;52.354;13.614;2023-07-29T23:12:00;4;4;
76421;PMS5003;65254;52.354;13.614;2023-07-29T23:16:01;4;4;
76421;PMS5003;65254;52.354;13.614;2023-07-29T23:20:00;4;4;
76421;PMS5003;65254;52.354;13.614;2023-07-29T23:24:00;3;3;
76421;PMS5003;65254;52.354;13.614;2023-07-29T23:28:00;3;3;
76421;PMS5003;65254;52.354;13.614;2023-07-29T23:32:00;4;4;
76421;PMS5003;65254;52.354;13.614;2023-07-29T23:36:01;3;3;
76421;PMS5003;65254;52.354;13.614;2023-07-29T23:40:00;3;3;
76421;PMS5003;65254;52.354;13.614;2023-07-29T23:44:00;3;3;
76421;PMS5003;65254;52.354;13.614;2023-07-29T23:48:00;3;3;
76421;PMS5003;65254;52.354;13.614;2023-07-29T23:52:00;3;3;
76421;PMS5003;65254;52.354;13.614;2023-07-29T23:56:00;3;3;
